KCVS/CVS METAR and TAF weather

Enter ICAO airport designator
Station Type Date Time Source
KCVS METAR 2020/11/27 02:58 UTC NOAA

KCVS 270258Z AUTO 05010KT 10SM CLR 04/M06 A3004 RMK AO2 SLP171 T00371060 52014 $


Station Type Date Time Source
KCVS Decoded METAR 2020/11/27 02:58 UTC NOAA

Cannon Air Force Base / Clovis, NM, United States (KCVS) 34-23N 103-19W
Nov 26, 2020 - 09:58 PM EST / 2020.11.27 0258 UTC
Wind: from the NE (050 degrees) at 12 MPH (10 KT):0
Visibility: 10 mile(s):0
Sky conditions: clear
Temperature: 38.7 F (3.7 C)
Dew Point: 21.2 F (-6.0 C)
Relative Humidity: 49%
Pressure (altimeter): 30.04 in. Hg (1017 hPa)
Pressure tendency: 0.04 inches (1.4 hPa) higher than three hours ago
ob: KCVS 270258Z AUTO 05010KT 10SM CLR 04/M06 A3004 RMK AO2 SLP171 T00371060 52014
cycle: 3

Station Type Date Time Source
KCVS TAF 2020/11/26 05:27 UTC NOAA

TAF TAF
AMD KCVS 260522Z 2605/2708 23014KT 9999 SKC QNH2991INS WND 26010KT AFT 2609
BECMG 2615/2616 31012G18KT 9999 SKC QNH2996INS
BECMG 2620/2621 33010KT 9999 SKC QNH2997INS WND 02007KT AFT 2623
BECMG 2700/2701 06005KT 9999 SKC QNH3002INS TX15/2620Z TN01/2613Z LAST NO
AMDS AFT 2606 NEXT 3010

Example: see airport list